createdAt,value
2022-08-26T00:01:48.979Z,92788.72
2022-08-26T00:04:32.447Z,92790.31
2022-08-26T00:07:15.539Z,92795.53
2022-08-26T00:09:59.963Z,92785.53
2022-08-26T00:12:43.389Z,92793.56
2022-08-26T00:15:26.773Z,92789.38
2022-08-26T00:18:12.402Z,92791.97
2022-08-26T00:21:06.296Z,92790.75
2022-08-26T00:23:49.764Z,92787.91
2022-08-26T00:26:34.946Z,92788.31
2022-08-26T00:29:18.418Z,92788.31
2022-08-26T00:32:02.708Z,92779.88
2022-08-26T00:34:47.217Z,92785.53
2022-08-26T00:37:30.529Z,92784.16
2022-08-26T00:40:16.485Z,92784.16
2022-08-26T00:43:02.399Z,92790.38
2022-08-26T00:45:56.545Z,92783.16
2022-08-26T00:48:42.941Z,92785.41
2022-08-26T00:51:29.994Z,92778.41
2022-08-26T00:54:14.139Z,92784.06
2022-08-26T00:57:00.316Z,92780.88
2022-08-26T00:59:46.954Z,92778.25
2022-08-26T01:02:30.922Z,92779.06
2022-08-26T01:05:14.134Z,92773.84
2022-08-26T01:07:57.265Z,92772.81
2022-08-26T01:10:40.765Z,92772.63
2022-08-26T01:13:24.756Z,92767.97
2022-08-26T01:16:13.815Z,92768.78
2022-08-26T01:19:02.201Z,92768.56
2022-08-26T01:21:51.138Z,92769.56
2022-08-26T01:24:36.645Z,92775.19
2022-08-26T01:27:22.157Z,92770.16
2022-08-26T01:30:07.678Z,92772.78
2022-08-26T01:32:51.592Z,92768.56
2022-08-26T01:35:34.777Z,92770.59
2022-08-26T01:38:18.977Z,92763.78
2022-08-26T01:41:04.433Z,92765.94
2022-08-26T01:44:00.962Z,92762.13
2022-08-26T01:46:45.678Z,92759.31
2022-08-26T01:49:30.147Z,92754.91
2022-08-26T01:52:22.006Z,92759.88
2022-08-26T01:55:05.958Z,92757.50
2022-08-26T01:57:56.218Z,92765.16
2022-08-26T02:00:39.677Z,92757.34
2022-08-26T02:03:22.841Z,92750.94
2022-08-26T02:06:09.227Z,92758.41
2022-08-26T02:08:56.399Z,92758.41
2022-08-26T02:11:39.935Z,92755.56
2022-08-26T02:14:29.149Z,92757.75
2022-08-26T02:17:12.314Z,92754.91
2022-08-26T02:19:56.730Z,92753.34
2022-08-26T02:22:41.352Z,92756.16
2022-08-26T02:25:33.275Z,92752.94
2022-08-26T02:28:17.675Z,92757.53
2022-08-26T02:31:04.390Z,92751.88
2022-08-26T02:33:47.727Z,92746.47
2022-08-26T02:36:30.796Z,92747.25
2022-08-26T02:39:18.011Z,92746.25
2022-08-26T02:42:06.509Z,92753.06
2022-08-26T02:44:49.741Z,92747.84
2022-08-26T02:47:35.096Z,92747.06
2022-08-26T02:50:18.325Z,92743.88
2022-08-26T02:53:01.384Z,92748.50
2022-08-26T02:55:45.558Z,92750.28
2022-08-26T02:58:31.746Z,92742.69
2022-08-26T03:01:22.062Z,92747.09
2022-08-26T03:04:09.573Z,92749.28
2022-08-26T03:06:53.491Z,92746.47
2022-08-26T03:09:38.622Z,92742.03
2022-08-26T03:12:23.176Z,92734.22
2022-08-26T03:15:15.927Z,92735.03
2022-08-26T03:18:00.945Z,92736.03
2022-08-26T03:20:45.545Z,92735.22
2022-08-26T03:23:28.584Z,92736.44
2022-08-26T03:26:14.871Z,92730.88
2022-08-26T03:29:15.918Z,92730.28
2022-08-26T03:32:01.589Z,92728.09
2022-08-26T03:34:46.352Z,92726.47
2022-08-26T03:37:31.405Z,92732.50
2022-08-26T03:40:14.619Z,92725.25
2022-08-26T03:42:57.705Z,92730.47
2022-08-26T03:45:40.954Z,92724.25
2022-08-26T03:48:25.677Z,92727.84
2022-08-26T03:51:13.207Z,92726.47
2022-08-26T03:53:57.694Z,92724.28
2022-08-26T03:56:40.843Z,92724.94
2022-08-26T03:59:24.947Z,92725.34
2022-08-26T04:02:08.616Z,92727.38
2022-08-26T04:04:54.832Z,92733.41
2022-08-26T04:07:37.837Z,92733.41
2022-08-26T04:10:28.671Z,92732.59
2022-08-26T04:13:12.877Z,92727.38
2022-08-26T04:15:56.235Z,92734.78
2022-08-26T04:18:46.459Z,92729.34
2022-08-26T04:21:30.295Z,92724.72
2022-08-26T04:24:16.617Z,92722.09
2022-08-26T04:27:03.434Z,92723.50
2022-08-26T04:29:47.774Z,92723.06
2022-08-26T04:32:31.355Z,92724.28
2022-08-26T04:35:14.424Z,92725.91
2022-08-26T04:37:58.903Z,92725.31
2022-08-26T04:40:46.646Z,92722.50
2022-08-26T04:43:31.566Z,92719.66
2022-08-26T04:46:18.826Z,92721.03
2022-08-26T04:49:02.109Z,92726.06
2022-08-26T04:51:45.314Z,92726.66
2022-08-26T04:54:28.392Z,92716.56
2022-08-26T04:57:11.507Z,92724.56
2022-08-26T04:59:55.954Z,92722.53
2022-08-26T05:02:39.450Z,92729.75
2022-08-26T05:05:22.494Z,92724.88
2022-08-26T05:08:05.572Z,92721.41
2022-08-26T05:10:50.681Z,92722.38
2022-08-26T05:13:34.870Z,92730.94
2022-08-26T05:16:19.468Z,92730.31
2022-08-26T05:19:03.671Z,92729.66
2022-08-26T05:21:49.260Z,92731.59
2022-08-26T05:24:32.446Z,92734.41
2022-08-26T05:27:16.479Z,92731.34
2022-08-26T05:30:01.136Z,92736.94
2022-08-26T05:32:45.599Z,92737.31
2022-08-26T05:35:31.968Z,92736.88
2022-08-26T05:38:17.382Z,92733.00
2022-08-26T05:41:00.415Z,92730.75
2022-08-26T05:43:43.726Z,92735.56
2022-08-26T05:46:27.691Z,92734.34
2022-08-26T05:49:13.110Z,92740.94
2022-08-26T05:51:56.265Z,92736.06
2022-08-26T05:54:39.920Z,92742.47
2022-08-26T05:57:23.246Z,92739.19
2022-08-26T06:00:07.357Z,92741.13
2022-08-26T06:02:55.289Z,92743.13
2022-08-26T06:05:41.117Z,92737.41
2022-08-26T06:08:24.451Z,92735.38
2022-08-26T06:11:17.160Z,92741.19
2022-08-26T06:14:05.353Z,92738.16
2022-08-26T06:16:48.496Z,92736.69
2022-08-26T06:19:32.697Z,92739.44
2022-08-26T06:22:36.545Z,92743.00
2022-08-26T06:25:36.121Z,92745.28
2022-08-26T06:28:20.437Z,92748.88
2022-08-26T06:31:04.513Z,92743.34
2022-08-26T06:33:47.680Z,92745.63
2022-08-26T06:36:32.362Z,92750.75
2022-08-26T06:39:18.942Z,92739.41
2022-08-26T06:42:06.272Z,92742.75
2022-08-26T06:44:50.307Z,92752.09
2022-08-26T06:47:34.155Z,92744.13
2022-08-26T06:50:17.394Z,92744.03
2022-08-26T06:53:01.451Z,92743.09
2022-08-26T06:55:47.261Z,92735.50
2022-08-26T06:58:35.665Z,92738.63
2022-08-26T07:01:22.038Z,92741.69
2022-08-26T07:04:10.032Z,92746.56
2022-08-26T07:06:54.359Z,92743.38
2022-08-26T07:09:37.478Z,92740.44
2022-08-26T07:12:22.103Z,92743.25
2022-08-26T07:15:05.986Z,92742.94
2022-08-26T07:17:50.682Z,92743.81
2022-08-26T07:20:33.723Z,92743.91
2022-08-26T07:23:17.327Z,92746.06
2022-08-26T07:26:00.937Z,92752.69
2022-08-26T07:28:46.788Z,92750.41
2022-08-26T07:31:39.237Z,92743.22
2022-08-26T07:34:24.022Z,92745.16
2022-08-26T07:37:08.811Z,92741.03
2022-08-26T07:39:52.263Z,92744.53
2022-08-26T07:42:35.416Z,92749.69
2022-08-26T07:45:20.087Z,92745.53
2022-08-26T07:48:04.274Z,92751.91
2022-08-26T07:50:49.169Z,92753.84
2022-08-26T07:53:35.487Z,92759.19
2022-08-26T07:56:18.929Z,92752.19
2022-08-26T07:59:02.290Z,92753.09
2022-08-26T08:01:53.128Z,92752.94
2022-08-26T08:04:36.252Z,92758.03
2022-08-26T08:07:19.375Z,92755.03
2022-08-26T08:10:04.604Z,92757.19
2022-08-26T08:12:51.305Z,92754.44
2022-08-26T08:15:35.639Z,92759.81
2022-08-26T08:18:20.765Z,92758.59
2022-08-26T08:21:21.298Z,92752.63
2022-08-26T08:24:05.675Z,92750.09
2022-08-26T08:26:48.774Z,92759.16
2022-08-26T08:29:31.813Z,92752.47
2022-08-26T08:32:15.802Z,92750.00
2022-08-26T08:35:00.785Z,92751.91
2022-08-26T08:37:44.004Z,92744.78
2022-08-26T08:40:29.206Z,92742.03
2022-08-26T08:43:14.605Z,92747.34
2022-08-26T08:46:04.377Z,92745.59
2022-08-26T08:48:52.142Z,92746.41
2022-08-26T08:51:48.067Z,92743.78
2022-08-26T08:54:32.658Z,92731.19
2022-08-26T08:57:24.510Z,92730.47
2022-08-26T09:00:12.318Z,92730.03
2022-08-26T09:03:00.366Z,92729.88
2022-08-26T09:05:48.766Z,92728.13
2022-08-26T09:08:36.973Z,92728.84
2022-08-26T09:11:21.418Z,92729.91
2022-08-26T09:14:06.022Z,92729.19
2022-08-26T09:16:52.757Z,92731.63
2022-08-26T09:19:41.231Z,92724.97
2022-08-26T09:22:31.955Z,92718.69
2022-08-26T09:25:17.116Z,92714.50
2022-08-26T09:28:01.755Z,92723.06
2022-08-26T09:30:54.624Z,92716.69
2022-08-26T09:33:39.310Z,92711.41
2022-08-26T09:36:26.303Z,92713.22
2022-08-26T09:39:27.755Z,92706.91
2022-08-26T09:42:16.808Z,92714.56
2022-08-26T09:45:01.934Z,92712.44
2022-08-26T09:47:56.041Z,92718.22
2022-08-26T09:50:41.351Z,92715.84
2022-08-26T09:53:31.015Z,92711.34
2022-08-26T09:56:18.490Z,92706.94
2022-08-26T09:59:03.894Z,92716.22
2022-08-26T10:01:49.662Z,92712.53
2022-08-26T10:04:32.878Z,92706.47
2022-08-26T10:07:35.515Z,92705.72
2022-08-26T10:10:24.566Z,92696.22
2022-08-26T10:13:13.397Z,92689.59
2022-08-26T10:16:02.842Z,92684.75
2022-08-26T10:19:00.156Z,92683.34
2022-08-26T10:21:46.962Z,92684.00
2022-08-26T10:24:40.634Z,92681.47
2022-08-26T10:27:33.012Z,92690.34
2022-08-26T10:30:20.677Z,92687.38
2022-08-26T10:33:08.858Z,92697.63
2022-08-26T10:35:55.239Z,92692.16
2022-08-26T10:38:41.698Z,92689.22
2022-08-26T10:41:33.148Z,92690.56
2022-08-26T10:44:19.219Z,92690.75
2022-08-26T10:47:15.971Z,92689.06
2022-08-26T10:50:03.410Z,92691.59
2022-08-26T10:52:55.783Z,92692.53
2022-08-26T10:55:55.972Z,92688.47
2022-08-26T10:58:55.830Z,92687.56
2022-08-26T11:01:44.180Z,92688.19
2022-08-26T11:04:52.369Z,92683.28
2022-08-26T11:07:41.835Z,92681.41
2022-08-26T11:11:04.401Z,92677.25
2022-08-26T11:14:01.707Z,92676.84
2022-08-26T11:16:46.609Z,92672.97
2022-08-26T11:20:09.172Z,92666.31
2022-08-26T11:23:36.322Z,92663.03
2022-08-26T11:26:35.669Z,92667.25
2022-08-26T11:29:59.478Z,92655.53
2022-08-26T11:32:51.999Z,92667.47
2022-08-26T11:35:52.157Z,92660.16
2022-08-26T11:38:35.501Z,92656.06
2022-08-26T11:41:21.937Z,92651.66
2022-08-26T11:44:09.220Z,92654.66
2022-08-26T11:47:00.670Z,92649.97
2022-08-26T11:49:43.698Z,92663.84
2022-08-26T11:52:26.726Z,92652.97
2022-08-26T11:55:12.150Z,92656.78
2022-08-26T11:58:00.851Z,92658.09
2022-08-26T12:00:52.388Z,92662.63
2022-08-26T12:03:41.919Z,92683.75
2022-08-26T12:06:29.179Z,92701.47
2022-08-26T12:09:21.349Z,92717.84
2022-08-26T12:12:13.152Z,92733.44
2022-08-26T12:15:13.748Z,92738.59
2022-08-26T12:17:56.818Z,92730.91
2022-08-26T12:20:51.318Z,92700.31
2022-08-26T12:23:43.359Z,92673.00
2022-08-26T12:26:29.164Z,92662.50
2022-08-26T12:29:27.154Z,92667.78
2022-08-26T12:32:13.503Z,92659.56
2022-08-26T12:34:56.934Z,92651.41
2022-08-26T12:37:45.553Z,92645.91
2022-08-26T12:40:35.811Z,92662.34
2022-08-26T12:43:38.570Z,92658.69
2022-08-26T12:46:28.622Z,92647.66
2022-08-26T12:49:11.708Z,92647.16
2022-08-26T12:51:54.726Z,92646.53
2022-08-26T12:54:57.186Z,92655.41
2022-08-26T12:57:40.290Z,92670.38
2022-08-26T13:00:33.147Z,92669.09
2022-08-26T13:03:44.792Z,92674.59
2022-08-26T13:06:31.193Z,92671.34
2022-08-26T13:09:32.089Z,92662.03
2022-08-26T13:12:26.051Z,92648.94
2022-08-26T13:15:09.740Z,92641.13
2022-08-26T13:17:53.141Z,92631.34
2022-08-26T13:20:44.118Z,92632.03
2022-08-26T13:23:27.179Z,92652.34
2022-08-26T13:26:10.206Z,92658.78
2022-08-26T13:29:01.731Z,92662.22
2022-08-26T13:31:46.872Z,92665.81
2022-08-26T13:34:32.422Z,92666.41
2022-08-26T13:37:15.446Z,92666.59
2022-08-26T13:39:59.076Z,92668.94
2022-08-26T13:42:49.399Z,92677.31
2022-08-26T13:45:34.405Z,92675.47
2022-08-26T13:48:21.565Z,92677.63
2022-08-26T13:51:08.146Z,92668.59
2022-08-26T13:53:52.986Z,92673.88
2022-08-26T13:56:37.456Z,92674.50
2022-08-26T13:59:20.550Z,92678.31
2022-08-26T14:02:05.047Z,92677.94
2022-08-26T14:04:48.126Z,92667.16
2022-08-26T14:07:31.158Z,92664.13
2022-08-26T14:10:14.140Z,92666.00
2022-08-26T14:12:57.554Z,92661.25
2022-08-26T14:15:40.778Z,92660.31
2022-08-26T14:18:30.468Z,92667.72
2022-08-26T14:21:15.125Z,92657.53
2022-08-26T14:24:00.924Z,92648.09
2022-08-26T14:26:44.374Z,92648.09
2022-08-26T14:29:27.641Z,92635.09
2022-08-26T14:32:15.427Z,92626.25
2022-08-26T14:35:00.096Z,92623.44
2022-08-26T14:37:43.228Z,92616.03
2022-08-26T14:40:29.997Z,92621.78
2022-08-26T14:43:15.218Z,92600.75
2022-08-26T14:45:58.592Z,92605.16
2022-08-26T14:48:41.553Z,92603.38
2022-08-26T14:51:26.096Z,92603.78
2022-08-26T14:54:16.244Z,92604.59
2022-08-26T14:57:02.267Z,92601.53
2022-08-26T14:59:50.091Z,92608.31
2022-08-26T15:02:34.104Z,92615.53
2022-08-26T15:05:17.330Z,92609.03
2022-08-26T15:08:02.646Z,92613.56
2022-08-26T15:10:45.737Z,92604.09
2022-08-26T15:13:28.804Z,92595.22
2022-08-26T15:16:11.901Z,92579.28
2022-08-26T15:18:54.988Z,92574.44
2022-08-26T15:21:38.284Z,92563.22
2022-08-26T15:24:25.522Z,92568.44
2022-08-26T15:27:09.046Z,92567.78
2022-08-26T15:29:52.802Z,92570.53
2022-08-26T15:32:36.144Z,92568.38
2022-08-26T15:35:19.220Z,92556.19
2022-08-26T15:38:02.835Z,92553.88
2022-08-26T15:40:47.375Z,92545.09
2022-08-26T15:43:30.500Z,92536.88
2022-08-26T15:46:13.931Z,92539.53
2022-08-26T15:48:57.054Z,92530.97
2022-08-26T15:51:45.635Z,92530.44
2022-08-26T15:54:29.591Z,92534.31
2022-08-26T15:57:16.423Z,92529.47
2022-08-26T16:00:01.899Z,92522.66
2022-08-26T16:02:54.741Z,92535.72
2022-08-26T16:05:39.082Z,92532.53
2022-08-26T16:08:22.400Z,92536.81
2022-08-26T16:11:05.938Z,92538.50
2022-08-26T16:13:50.606Z,92540.19
2022-08-26T16:16:33.630Z,92542.00
2022-08-26T16:19:16.683Z,92542.16
2022-08-26T16:21:59.711Z,92538.88
2022-08-26T16:24:42.799Z,92531.94
2022-08-26T16:27:25.814Z,92533.09
2022-08-26T16:30:11.898Z,92525.59
2022-08-26T16:32:55.663Z,92522.41
2022-08-26T16:35:39.548Z,92523.75
2022-08-26T16:38:22.614Z,92520.88
2022-08-26T16:41:07.111Z,92522.03
2022-08-26T16:43:50.474Z,92528.03
2022-08-26T16:46:35.824Z,92521.38
2022-08-26T16:49:19.190Z,92524.50
2022-08-26T16:52:02.327Z,92513.66
2022-08-26T16:54:45.433Z,92509.28
2022-08-26T16:57:28.482Z,92506.16
2022-08-26T17:00:17.303Z,92502.63
2022-08-26T17:03:02.341Z,92495.28
2022-08-26T17:05:45.514Z,92499.34
2022-08-26T17:08:29.050Z,92501.53
2022-08-26T17:11:12.614Z,92498.91
2022-08-26T17:13:55.705Z,92513.78
2022-08-26T17:16:39.035Z,92518.63
2022-08-26T17:19:23.656Z,92521.66
2022-08-26T17:22:08.276Z,92521.50
2022-08-26T17:24:51.342Z,92517.25
2022-08-26T17:27:34.342Z,92518.66
2022-08-26T17:30:18.451Z,92531.13
2022-08-26T17:33:01.466Z,92534.09
2022-08-26T17:35:56.470Z,92537.88
2022-08-26T17:38:39.772Z,92543.28
2022-08-26T17:41:22.840Z,92554.28
2022-08-26T17:44:06.756Z,92545.88
2022-08-26T17:46:49.915Z,92544.94
2022-08-26T17:49:33.109Z,92539.94
2022-08-26T17:52:17.545Z,92550.44
2022-08-26T17:55:00.560Z,92555.13
2022-08-26T17:57:43.905Z,92554.03
2022-08-26T18:00:36.660Z,92563.28
2022-08-26T18:03:20.296Z,92576.91
2022-08-26T18:06:04.086Z,92582.13
2022-08-26T18:08:48.675Z,92573.91
2022-08-26T18:11:32.824Z,92583.31
2022-08-26T18:14:15.969Z,92587.00
2022-08-26T18:16:59.022Z,92582.84
2022-08-26T18:22:26.463Z,92590.97
2022-08-26T18:25:12.687Z,92587.81
2022-08-26T18:27:55.761Z,92592.25
2022-08-26T18:30:39.301Z,92601.47
2022-08-26T18:33:22.387Z,92604.53
2022-08-26T18:36:06.239Z,92608.69
2022-08-26T18:38:50.726Z,92608.94
2022-08-26T18:41:43.412Z,92607.38
2022-08-26T18:44:26.487Z,92615.22
2022-08-26T18:47:09.584Z,92617.44
2022-08-26T18:49:52.733Z,92618.63
2022-08-26T18:52:35.846Z,92619.47
2022-08-26T18:55:18.911Z,92612.69
2022-08-26T18:58:03.404Z,92606.06
2022-08-26T19:00:46.576Z,92606.47
2022-08-26T19:03:29.667Z,92607.09
2022-08-26T19:06:15.376Z,92605.31
2022-08-26T19:08:58.530Z,92611.72
2022-08-26T19:11:43.017Z,92613.94
2022-08-26T19:14:27.500Z,92615.94
2022-08-26T19:17:11.785Z,92621.13
2022-08-26T19:19:54.919Z,92621.75
2022-08-26T19:22:37.962Z,92627.56
2022-08-26T19:25:20.985Z,92630.97
2022-08-26T19:28:04.272Z,92639.16
2022-08-26T19:30:53.387Z,92645.78
2022-08-26T19:33:37.216Z,92641.78
2022-08-26T19:36:22.840Z,92642.78
2022-08-26T19:39:07.731Z,92641.41
2022-08-26T19:41:51.782Z,92648.81
2022-08-26T19:44:52.330Z,92648.97
2022-08-26T19:47:37.069Z,92646.00
2022-08-26T19:50:19.938Z,92649.97
2022-08-26T19:53:04.118Z,92657.75
2022-08-26T19:55:47.170Z,92651.16
2022-08-26T19:58:30.189Z,92658.75
2022-08-26T20:01:14.663Z,92648.97
2022-08-26T20:03:59.075Z,92649.56
2022-08-26T20:06:42.171Z,92652.34
2022-08-26T20:09:25.247Z,92649.19
2022-08-26T20:12:09.371Z,92654.19
2022-08-26T20:14:52.444Z,92645.38
2022-08-26T20:17:35.737Z,92642.00
2022-08-26T20:20:37.877Z,92638.56
2022-08-26T20:23:21.076Z,92636.56
2022-08-26T20:26:04.539Z,92629.75
2022-08-26T20:28:47.558Z,92624.97
2022-08-26T20:31:35.128Z,92624.38
2022-08-26T20:34:19.507Z,92623.78
2022-08-26T20:37:04.667Z,92613.56
2022-08-26T20:39:48.633Z,92614.16
2022-08-26T20:42:31.966Z,92612.53
2022-08-26T20:45:15.009Z,92611.97
2022-08-26T20:47:58.122Z,92607.16
2022-08-26T20:50:41.275Z,92608.78
2022-08-26T20:53:25.959Z,92609.59
2022-08-26T20:56:10.456Z,92602.56
2022-08-26T20:58:55.461Z,92607.56
2022-08-26T21:01:42.083Z,92606.38
2022-08-26T21:04:27.525Z,92614.38
2022-08-26T21:07:10.634Z,92607.97
2022-08-26T21:09:55.021Z,92599.19
2022-08-26T21:12:38.403Z,92592.56
2022-08-26T21:15:22.164Z,92584.78
2022-08-26T21:18:05.960Z,92584.16
2022-08-26T21:20:49.028Z,92579.19
2022-08-26T21:23:32.523Z,92567.97
2022-08-26T21:26:18.005Z,92573.59
2022-08-26T21:29:02.478Z,92576.75
2022-08-26T21:31:46.682Z,92574.78
2022-08-26T21:34:30.067Z,92573.97
2022-08-26T21:37:15.381Z,92575.78
2022-08-26T21:40:01.941Z,92572.97
2022-08-26T21:42:46.531Z,92584.59
2022-08-26T21:45:31.037Z,92586.97
2022-08-26T21:48:14.132Z,92593.38
2022-08-26T21:50:58.090Z,92587.38
2022-08-26T21:53:41.698Z,92590.19
2022-08-26T21:56:26.882Z,92586.97
2022-08-26T21:59:11.994Z,92585.78
2022-08-26T22:01:55.352Z,92580.78
2022-08-26T22:04:38.421Z,92589.97
2022-08-26T22:07:21.435Z,92579.38
2022-08-26T22:10:05.039Z,92584.38
2022-08-26T22:12:48.157Z,92582.38
2022-08-26T22:15:35.387Z,92584.78
2022-08-26T22:18:21.429Z,92579.78
2022-08-26T22:21:06.667Z,92583.16
2022-08-26T22:23:49.744Z,92573.16
2022-08-26T22:26:34.178Z,92575.38
2022-08-26T22:29:17.389Z,92575.59
2022-08-26T22:32:02.514Z,92571.56
2022-08-26T22:34:45.800Z,92575.78
2022-08-26T22:37:28.835Z,92579.38
2022-08-26T22:40:13.205Z,92581.56
2022-08-26T22:42:58.804Z,92571.56
2022-08-26T22:45:45.806Z,92566.97
2022-08-26T22:48:30.240Z,92576.78
2022-08-26T22:51:13.689Z,92572.56
2022-08-26T22:53:56.743Z,92573.56
2022-08-26T22:56:40.826Z,92579.56
2022-08-26T22:59:24.542Z,92581.19
2022-08-26T23:02:07.901Z,92574.38
2022-08-26T23:04:56.005Z,92564.38
2022-08-26T23:07:39.230Z,92572.56
2022-08-26T23:10:22.596Z,92568.97
2022-08-26T23:13:08.153Z,92566.59
2022-08-26T23:16:00.149Z,92567.16
2022-08-26T23:18:43.218Z,92564.78
2022-08-26T23:21:27.648Z,92559.56
2022-08-26T23:24:12.111Z,92563.38
2022-08-26T23:26:55.147Z,92558.19
2022-08-26T23:29:39.759Z,92569.75
2022-08-26T23:32:23.125Z,92569.38
2022-08-26T23:35:05.994Z,92577.59
2022-08-26T23:37:52.973Z,92573.78
2022-08-26T23:40:37.499Z,92575.16
2022-08-26T23:43:20.583Z,92568.97
2022-08-26T23:46:03.713Z,92575.78
2022-08-26T23:48:47.012Z,92590.56
2022-08-26T23:51:48.239Z,92580.19
2022-08-26T23:54:33.185Z,92570.97
2022-08-26T23:57:17.367Z,92578.97
